Portage la Prairie, Canada
Current Conditions -  °F | °C
As of 12:00 PM on Thursday 23 Oct 2014 (Local Time) from CYPG Reporting Station
Few Clouds Few Clouds  
Wind Chill: 14°   Ceiling: Unl
Heat Index: 14°   Visibility: 15mi
Dew Point:   Wind: 13mph
Humidity: 63%   Direction: 220°SW
Pressure: 29.78"   Gusts: NA
Location:  49.97°N, 98.29°W
Report Text: CYPG 231700Z 22011KT 15SM FEW090 FEW240 14/07 A2978 RMK AC2CI1SLP089
Loading
Personal Weather Stations






























Interactive Weather Map
Tropical Storm Tracking
New forecast layout! Learn more

10-Day Weather Forecast

Advertisements
Track Severe Weather on mobile